sensor_id;sensor_type;location;lat;lon;timestamp;P1;durP1;ratioP1;P2;durP2;ratioP2
10029;SDS011;5055;52.054;8.524;2023-04-05T00:01:14;0.43;;;0.43;;
10029;SDS011;5055;52.054;8.524;2023-04-05T00:03:47;0.40;;;0.40;;
10029;SDS011;5055;52.054;8.524;2023-04-05T00:06:16;0.40;;;0.40;;
10029;SDS011;5055;52.054;8.524;2023-04-05T00:08:44;0.50;;;0.50;;
10029;SDS011;5055;52.054;8.524;2023-04-05T00:11:15;0.40;;;0.40;;
10029;SDS011;5055;52.054;8.524;2023-04-05T00:13:44;0.40;;;0.40;;
10029;SDS011;5055;52.054;8.524;2023-04-05T00:16:12;0.40;;;0.40;;
10029;SDS011;5055;52.054;8.524;2023-04-05T00:18:41;0.43;;;0.43;;
10029;SDS011;5055;52.054;8.524;2023-04-05T00:21:16;0.60;;;0.60;;
10029;SDS011;5055;52.054;8.524;2023-04-05T00:23:47;0.40;;;0.40;;
10029;SDS011;5055;52.054;8.524;2023-04-05T00:26:17;0.40;;;0.40;;
10029;SDS011;5055;52.054;8.524;2023-04-05T00:28:45;0.43;;;0.43;;
10029;SDS011;5055;52.054;8.524;2023-04-05T00:31:14;0.40;;;0.40;;
10029;SDS011;5055;52.054;8.524;2023-04-05T00:33:43;0.50;;;0.50;;
10029;SDS011;5055;52.054;8.524;2023-04-05T00:36:12;0.50;;;0.50;;
10029;SDS011;5055;52.054;8.524;2023-04-05T00:38:43;0.47;;;0.47;;
10029;SDS011;5055;52.054;8.524;2023-04-05T00:41:13;0.40;;;0.40;;
10029;SDS011;5055;52.054;8.524;2023-04-05T00:43:41;0.60;;;0.60;;
10029;SDS011;5055;52.054;8.524;2023-04-05T00:46:09;0.50;;;0.50;;
10029;SDS011;5055;52.054;8.524;2023-04-05T00:48:38;0.60;;;0.60;;
10029;SDS011;5055;52.054;8.524;2023-04-05T00:51:07;0.50;;;0.50;;
10029;SDS011;5055;52.054;8.524;2023-04-05T00:53:37;0.67;;;0.67;;
10029;SDS011;5055;52.054;8.524;2023-04-05T00:56:09;0.47;;;0.47;;
10029;SDS011;5055;52.054;8.524;2023-04-05T00:58:39;0.57;;;0.57;;
10029;SDS011;5055;52.054;8.524;2023-04-05T01:01:09;0.40;;;0.40;;
10029;SDS011;5055;52.054;8.524;2023-04-05T01:03:44;0.47;;;0.47;;
10029;SDS011;5055;52.054;8.524;2023-04-05T01:06:20;0.40;;;0.40;;
10029;SDS011;5055;52.054;8.524;2023-04-05T01:08:58;0.40;;;0.40;;
10029;SDS011;5055;52.054;8.524;2023-04-05T01:11:34;0.30;;;0.30;;
10029;SDS011;5055;52.054;8.524;2023-04-05T01:14:06;0.40;;;0.40;;
10029;SDS011;5055;52.054;8.524;2023-04-05T01:16:34;0.33;;;0.33;;
10029;SDS011;5055;52.054;8.524;2023-04-05T01:19:02;0.40;;;0.40;;
10029;SDS011;5055;52.054;8.524;2023-04-05T01:21:38;0.50;;;0.50;;
10029;SDS011;5055;52.054;8.524;2023-04-05T01:27:43;0.50;;;0.50;;
10029;SDS011;5055;52.054;8.524;2023-04-05T01:30:36;0.50;;;0.50;;
10029;SDS011;5055;52.054;8.524;2023-04-05T01:33:11;0.40;;;0.40;;
10029;SDS011;5055;52.054;8.524;2023-04-05T01:35:46;0.57;;;0.57;;
10029;SDS011;5055;52.054;8.524;2023-04-05T01:38:21;0.30;;;0.30;;
10029;SDS011;5055;52.054;8.524;2023-04-05T01:40:52;0.60;;;0.60;;
10029;SDS011;5055;52.054;8.524;2023-04-05T01:43:20;0.60;;;0.60;;
10029;SDS011;5055;52.054;8.524;2023-04-05T01:45:50;0.40;;;0.40;;
10029;SDS011;5055;52.054;8.524;2023-04-05T01:48:18;0.53;;;0.53;;
10029;SDS011;5055;52.054;8.524;2023-04-05T01:50:47;0.60;;;0.60;;
10029;SDS011;5055;52.054;8.524;2023-04-05T01:53:15;0.60;;;0.60;;
10029;SDS011;5055;52.054;8.524;2023-04-05T01:55:46;0.40;;;0.40;;
10029;SDS011;5055;52.054;8.524;2023-04-05T01:58:36;0.50;;;0.50;;
10029;SDS011;5055;52.054;8.524;2023-04-05T02:01:06;0.47;;;0.47;;
10029;SDS011;5055;52.054;8.524;2023-04-05T02:03:35;0.30;;;0.30;;
10029;SDS011;5055;52.054;8.524;2023-04-05T02:06:03;0.70;;;0.70;;
10029;SDS011;5055;52.054;8.524;2023-04-05T02:08:32;0.53;;;0.53;;
10029;SDS011;5055;52.054;8.524;2023-04-05T02:11:00;0.30;;;0.30;;
10029;SDS011;5055;52.054;8.524;2023-04-05T02:13:29;0.60;;;0.60;;
10029;SDS011;5055;52.054;8.524;2023-04-05T02:15:57;0.60;;;0.60;;
10029;SDS011;5055;52.054;8.524;2023-04-05T02:18:27;0.30;;;0.30;;
10029;SDS011;5055;52.054;8.524;2023-04-05T02:20:59;0.70;;;0.70;;
10029;SDS011;5055;52.054;8.524;2023-04-05T02:23:29;0.73;;;0.73;;
10029;SDS011;5055;52.054;8.524;2023-04-05T02:25:58;0.53;;;0.53;;
10029;SDS011;5055;52.054;8.524;2023-04-05T02:28:26;0.67;;;0.67;;
10029;SDS011;5055;52.054;8.524;2023-04-05T02:30:54;0.40;;;0.40;;
10029;SDS011;5055;52.054;8.524;2023-04-05T02:33:23;0.60;;;0.60;;
10029;SDS011;5055;52.054;8.524;2023-04-05T02:35:54;0.40;;;0.40;;
10029;SDS011;5055;52.054;8.524;2023-04-05T02:38:23;0.50;;;0.50;;
10029;SDS011;5055;52.054;8.524;2023-04-05T02:40:51;0.70;;;0.70;;
10029;SDS011;5055;52.054;8.524;2023-04-05T02:43:20;0.50;;;0.50;;
10029;SDS011;5055;52.054;8.524;2023-04-05T02:45:49;0.80;;;0.80;;
10029;SDS011;5055;52.054;8.524;2023-04-05T02:48:18;0.63;;;0.63;;
10029;SDS011;5055;52.054;8.524;2023-04-05T02:50:47;0.60;;;0.60;;
10029;SDS011;5055;52.054;8.524;2023-04-05T02:53:17;0.40;;;0.40;;
10029;SDS011;5055;52.054;8.524;2023-04-05T02:55:50;0.40;;;0.40;;
10029;SDS011;5055;52.054;8.524;2023-04-05T02:58:19;0.73;;;0.73;;
10029;SDS011;5055;52.054;8.524;2023-04-05T03:00:48;0.40;;;0.40;;
10029;SDS011;5055;52.054;8.524;2023-04-05T03:03:18;0.47;;;0.47;;
10029;SDS011;5055;52.054;8.524;2023-04-05T03:05:55;0.30;;;0.30;;
10029;SDS011;5055;52.054;8.524;2023-04-05T03:08:27;0.80;;;0.80;;
10029;SDS011;5055;52.054;8.524;2023-04-05T03:10:55;0.60;;;0.60;;
10029;SDS011;5055;52.054;8.524;2023-04-05T03:13:26;0.43;;;0.43;;
10029;SDS011;5055;52.054;8.524;2023-04-05T03:15:55;0.47;;;0.47;;
10029;SDS011;5055;52.054;8.524;2023-04-05T03:18:23;0.50;;;0.50;;
10029;SDS011;5055;52.054;8.524;2023-04-05T03:20:52;0.53;;;0.53;;
10029;SDS011;5055;52.054;8.524;2023-04-05T03:23:22;0.67;;;0.67;;
10029;SDS011;5055;52.054;8.524;2023-04-05T03:25:57;0.40;;;0.40;;
10029;SDS011;5055;52.054;8.524;2023-04-05T03:28:29;0.60;;;0.60;;
10029;SDS011;5055;52.054;8.524;2023-04-05T03:30:58;0.80;;;0.80;;
10029;SDS011;5055;52.054;8.524;2023-04-05T03:33:27;0.50;;;0.50;;
10029;SDS011;5055;52.054;8.524;2023-04-05T03:35:55;0.40;;;0.40;;
10029;SDS011;5055;52.054;8.524;2023-04-05T03:38:24;0.40;;;0.40;;
10029;SDS011;5055;52.054;8.524;2023-04-05T03:40:55;0.60;;;0.60;;
10029;SDS011;5055;52.054;8.524;2023-04-05T03:43:23;0.47;;;0.47;;
10029;SDS011;5055;52.054;8.524;2023-04-05T03:45:53;0.50;;;0.50;;
10029;SDS011;5055;52.054;8.524;2023-04-05T03:48:21;0.50;;;0.50;;
10029;SDS011;5055;52.054;8.524;2023-04-05T03:50:49;0.30;;;0.30;;
10029;SDS011;5055;52.054;8.524;2023-04-05T03:53:18;0.53;;;0.53;;
10029;SDS011;5055;52.054;8.524;2023-04-05T03:55:46;0.63;;;0.63;;
10029;SDS011;5055;52.054;8.524;2023-04-05T03:58:17;0.80;;;0.80;;
10029;SDS011;5055;52.054;8.524;2023-04-05T04:00:46;0.67;;;0.67;;
10029;SDS011;5055;52.054;8.524;2023-04-05T04:03:14;0.60;;;0.60;;
10029;SDS011;5055;52.054;8.524;2023-04-05T04:05:42;0.50;;;0.50;;
10029;SDS011;5055;52.054;8.524;2023-04-05T04:08:11;0.90;;;0.90;;
10029;SDS011;5055;52.054;8.524;2023-04-05T04:10:40;0.87;;;0.87;;
10029;SDS011;5055;52.054;8.524;2023-04-05T04:13:08;0.40;;;0.40;;
10029;SDS011;5055;52.054;8.524;2023-04-05T04:15:38;0.60;;;0.60;;
10029;SDS011;5055;52.054;8.524;2023-04-05T04:18:06;0.63;;;0.63;;
10029;SDS011;5055;52.054;8.524;2023-04-05T04:20:35;0.30;;;0.30;;
10029;SDS011;5055;52.054;8.524;2023-04-05T04:23:03;0.43;;;0.43;;
10029;SDS011;5055;52.054;8.524;2023-04-05T04:25:35;0.70;;;0.70;;
10029;SDS011;5055;52.054;8.524;2023-04-05T04:28:04;0.37;;;0.37;;
10029;SDS011;5055;52.054;8.524;2023-04-05T04:30:34;0.40;;;0.40;;
10029;SDS011;5055;52.054;8.524;2023-04-05T04:33:06;0.43;;;0.43;;
10029;SDS011;5055;52.054;8.524;2023-04-05T04:35:35;0.60;;;0.60;;
10029;SDS011;5055;52.054;8.524;2023-04-05T04:38:05;0.53;;;0.53;;
10029;SDS011;5055;52.054;8.524;2023-04-05T04:40:34;0.60;;;0.60;;
10029;SDS011;5055;52.054;8.524;2023-04-05T04:43:05;0.70;;;0.70;;
10029;SDS011;5055;52.054;8.524;2023-04-05T04:45:35;0.97;;;0.97;;
10029;SDS011;5055;52.054;8.524;2023-04-05T04:48:04;0.70;;;0.70;;
10029;SDS011;5055;52.054;8.524;2023-04-05T04:50:35;0.93;;;0.93;;
10029;SDS011;5055;52.054;8.524;2023-04-05T04:53:04;0.40;;;0.40;;
10029;SDS011;5055;52.054;8.524;2023-04-05T04:55:33;0.67;;;0.67;;
10029;SDS011;5055;52.054;8.524;2023-04-05T04:58:01;0.40;;;0.40;;
10029;SDS011;5055;52.054;8.524;2023-04-05T05:00:36;0.60;;;0.60;;
10029;SDS011;5055;52.054;8.524;2023-04-05T05:03:07;0.70;;;0.70;;
10029;SDS011;5055;52.054;8.524;2023-04-05T05:05:40;0.60;;;0.60;;
10029;SDS011;5055;52.054;8.524;2023-04-05T05:08:10;0.70;;;0.70;;
10029;SDS011;5055;52.054;8.524;2023-04-05T05:10:38;0.87;;;0.87;;
10029;SDS011;5055;52.054;8.524;2023-04-05T05:13:10;0.60;;;0.60;;
10029;SDS011;5055;52.054;8.524;2023-04-05T05:15:39;0.90;;;0.90;;
10029;SDS011;5055;52.054;8.524;2023-04-05T05:18:09;0.57;;;0.57;;
10029;SDS011;5055;52.054;8.524;2023-04-05T05:20:38;0.40;;;0.40;;
10029;SDS011;5055;52.054;8.524;2023-04-05T05:23:07;0.57;;;0.57;;
10029;SDS011;5055;52.054;8.524;2023-04-05T05:25:35;0.50;;;0.50;;
10029;SDS011;5055;52.054;8.524;2023-04-05T05:28:04;0.53;;;0.53;;
10029;SDS011;5055;52.054;8.524;2023-04-05T05:30:33;0.57;;;0.57;;
10029;SDS011;5055;52.054;8.524;2023-04-05T05:33:01;0.50;;;0.50;;
10029;SDS011;5055;52.054;8.524;2023-04-05T05:35:31;0.50;;;0.50;;
10029;SDS011;5055;52.054;8.524;2023-04-05T05:38:00;0.40;;;0.40;;
10029;SDS011;5055;52.054;8.524;2023-04-05T05:40:29;0.50;;;0.50;;
10029;SDS011;5055;52.054;8.524;2023-04-05T05:42:57;0.50;;;0.50;;
10029;SDS011;5055;52.054;8.524;2023-04-05T05:45:25;0.40;;;0.40;;
10029;SDS011;5055;52.054;8.524;2023-04-05T05:47:54;0.40;;;0.40;;
10029;SDS011;5055;52.054;8.524;2023-04-05T05:50:23;0.70;;;0.70;;
10029;SDS011;5055;52.054;8.524;2023-04-05T05:52:53;0.70;;;0.70;;
10029;SDS011;5055;52.054;8.524;2023-04-05T05:55:22;0.50;;;0.50;;
10029;SDS011;5055;52.054;8.524;2023-04-05T05:57:50;0.50;;;0.50;;
10029;SDS011;5055;52.054;8.524;2023-04-05T06:00:19;0.40;;;0.40;;
10029;SDS011;5055;52.054;8.524;2023-04-05T06:02:48;0.40;;;0.40;;
10029;SDS011;5055;52.054;8.524;2023-04-05T06:05:18;0.30;;;0.30;;
10029;SDS011;5055;52.054;8.524;2023-04-05T06:07:47;0.37;;;0.37;;
10029;SDS011;5055;52.054;8.524;2023-04-05T06:10:17;0.50;;;0.50;;
10029;SDS011;5055;52.054;8.524;2023-04-05T06:12:46;0.40;;;0.40;;
10029;SDS011;5055;52.054;8.524;2023-04-05T06:15:15;0.40;;;0.40;;
10029;SDS011;5055;52.054;8.524;2023-04-05T06:17:44;0.60;;;0.60;;
10029;SDS011;5055;52.054;8.524;2023-04-05T06:20:13;0.43;;;0.43;;
10029;SDS011;5055;52.054;8.524;2023-04-05T06:22:45;0.80;;;0.80;;
10029;SDS011;5055;52.054;8.524;2023-04-05T06:25:14;0.47;;;0.47;;
10029;SDS011;5055;52.054;8.524;2023-04-05T06:27:45;0.60;;;0.60;;
10029;SDS011;5055;52.054;8.524;2023-04-05T06:30:14;0.40;;;0.40;;
10029;SDS011;5055;52.054;8.524;2023-04-05T06:32:43;0.50;;;0.50;;
10029;SDS011;5055;52.054;8.524;2023-04-05T06:35:14;0.30;;;0.30;;
10029;SDS011;5055;52.054;8.524;2023-04-05T06:37:43;0.60;;;0.60;;
10029;SDS011;5055;52.054;8.524;2023-04-05T06:40:11;0.40;;;0.40;;
10029;SDS011;5055;52.054;8.524;2023-04-05T06:42:40;0.40;;;0.40;;
10029;SDS011;5055;52.054;8.524;2023-04-05T06:45:11;0.40;;;0.40;;
10029;SDS011;5055;52.054;8.524;2023-04-05T06:47:39;0.40;;;0.40;;
10029;SDS011;5055;52.054;8.524;2023-04-05T06:50:08;0.40;;;0.40;;
10029;SDS011;5055;52.054;8.524;2023-04-05T06:52:37;0.43;;;0.43;;
10029;SDS011;5055;52.054;8.524;2023-04-05T06:55:07;0.50;;;0.50;;
10029;SDS011;5055;52.054;8.524;2023-04-05T06:57:36;0.40;;;0.40;;
10029;SDS011;5055;52.054;8.524;2023-04-05T07:00:05;0.50;;;0.50;;
10029;SDS011;5055;52.054;8.524;2023-04-05T07:02:38;0.30;;;0.30;;
10029;SDS011;5055;52.054;8.524;2023-04-05T07:05:07;0.50;;;0.50;;
10029;SDS011;5055;52.054;8.524;2023-04-05T07:07:37;0.50;;;0.50;;
10029;SDS011;5055;52.054;8.524;2023-04-05T07:10:07;0.50;;;0.50;;
10029;SDS011;5055;52.054;8.524;2023-04-05T07:12:36;0.50;;;0.50;;
10029;SDS011;5055;52.054;8.524;2023-04-05T07:15:06;0.40;;;0.40;;
10029;SDS011;5055;52.054;8.524;2023-04-05T07:17:35;0.30;;;0.30;;
10029;SDS011;5055;52.054;8.524;2023-04-05T07:20:06;0.60;;;0.60;;
10029;SDS011;5055;52.054;8.524;2023-04-05T07:22:35;0.40;;;0.40;;
10029;SDS011;5055;52.054;8.524;2023-04-05T07:25:05;0.40;;;0.40;;
10029;SDS011;5055;52.054;8.524;2023-04-05T07:27:35;0.40;;;0.40;;
10029;SDS011;5055;52.054;8.524;2023-04-05T07:30:05;0.30;;;0.30;;
10029;SDS011;5055;52.054;8.524;2023-04-05T07:32:35;0.47;;;0.47;;
10029;SDS011;5055;52.054;8.524;2023-04-05T07:35:04;0.40;;;0.40;;
10029;SDS011;5055;52.054;8.524;2023-04-05T07:37:34;0.30;;;0.30;;
10029;SDS011;5055;52.054;8.524;2023-04-05T07:40:04;0.50;;;0.50;;
10029;SDS011;5055;52.054;8.524;2023-04-05T07:42:33;0.30;;;0.30;;
10029;SDS011;5055;52.054;8.524;2023-04-05T07:45:02;0.30;;;0.30;;
10029;SDS011;5055;52.054;8.524;2023-04-05T07:47:32;0.33;;;0.33;;
10029;SDS011;5055;52.054;8.524;2023-04-05T07:50:01;0.40;;;0.40;;
10029;SDS011;5055;52.054;8.524;2023-04-05T07:52:32;0.40;;;0.40;;
10029;SDS011;5055;52.054;8.524;2023-04-05T07:55:00;0.30;;;0.30;;
10029;SDS011;5055;52.054;8.524;2023-04-05T07:57:29;0.40;;;0.40;;
10029;SDS011;5055;52.054;8.524;2023-04-05T07:59:57;0.40;;;0.40;;
10029;SDS011;5055;52.054;8.524;2023-04-05T08:02:26;0.30;;;0.30;;
10029;SDS011;5055;52.054;8.524;2023-04-05T08:04:55;0.40;;;0.40;;
10029;SDS011;5055;52.054;8.524;2023-04-05T08:07:25;0.30;;;0.30;;
10029;SDS011;5055;52.054;8.524;2023-04-05T08:09:55;0.30;;;0.30;;
10029;SDS011;5055;52.054;8.524;2023-04-05T08:12:25;0.40;;;0.40;;
10029;SDS011;5055;52.054;8.524;2023-04-05T08:14:54;0.30;;;0.30;;
10029;SDS011;5055;52.054;8.524;2023-04-05T08:17:23;0.30;;;0.30;;
10029;SDS011;5055;52.054;8.524;2023-04-05T08:19:53;0.40;;;0.40;;
10029;SDS011;5055;52.054;8.524;2023-04-05T08:22:22;0.30;;;0.30;;
10029;SDS011;5055;52.054;8.524;2023-04-05T08:24:55;0.47;;;0.47;;
10029;SDS011;5055;52.054;8.524;2023-04-05T08:27:24;0.40;;;0.40;;
10029;SDS011;5055;52.054;8.524;2023-04-05T08:29:53;0.37;;;0.37;;
10029;SDS011;5055;52.054;8.524;2023-04-05T08:32:22;0.20;;;0.20;;
10029;SDS011;5055;52.054;8.524;2023-04-05T08:34:51;0.30;;;0.30;;
10029;SDS011;5055;52.054;8.524;2023-04-05T08:37:19;0.30;;;0.30;;
10029;SDS011;5055;52.054;8.524;2023-04-05T08:39:48;0.33;;;0.33;;
10029;SDS011;5055;52.054;8.524;2023-04-05T08:42:22;0.27;;;0.27;;
10029;SDS011;5055;52.054;8.524;2023-04-05T08:44:56;0.30;;;0.30;;
10029;SDS011;5055;52.054;8.524;2023-04-05T08:47:26;0.40;;;0.40;;
10029;SDS011;5055;52.054;8.524;2023-04-05T08:49:56;0.40;;;0.40;;
10029;SDS011;5055;52.054;8.524;2023-04-05T08:52:25;0.30;;;0.30;;
10029;SDS011;5055;52.054;8.524;2023-04-05T08:54:54;0.30;;;0.30;;
10029;SDS011;5055;52.054;8.524;2023-04-05T08:57:24;0.30;;;0.30;;
10029;SDS011;5055;52.054;8.524;2023-04-05T08:59:58;0.20;;;0.20;;
10029;SDS011;5055;52.054;8.524;2023-04-05T09:02:29;0.37;;;0.37;;
10029;SDS011;5055;52.054;8.524;2023-04-05T09:04:58;0.30;;;0.30;;
10029;SDS011;5055;52.054;8.524;2023-04-05T09:07:27;0.30;;;0.30;;
10029;SDS011;5055;52.054;8.524;2023-04-05T09:09:57;0.27;;;0.27;;
10029;SDS011;5055;52.054;8.524;2023-04-05T09:12:30;0.20;;;0.20;;
10029;SDS011;5055;52.054;8.524;2023-04-05T09:14:59;0.30;;;0.30;;
10029;SDS011;5055;52.054;8.524;2023-04-05T09:17:28;0.30;;;0.30;;
10029;SDS011;5055;52.054;8.524;2023-04-05T09:19:58;0.40;;;0.40;;
10029;SDS011;5055;52.054;8.524;2023-04-05T09:22:27;0.30;;;0.30;;
10029;SDS011;5055;52.054;8.524;2023-04-05T09:24:56;0.30;;;0.30;;
10029;SDS011;5055;52.054;8.524;2023-04-05T09:27:24;0.50;;;0.50;;
10029;SDS011;5055;52.054;8.524;2023-04-05T09:29:55;0.20;;;0.20;;
10029;SDS011;5055;52.054;8.524;2023-04-05T09:32:24;0.20;;;0.20;;
10029;SDS011;5055;52.054;8.524;2023-04-05T09:34:57;0.20;;;0.20;;
10029;SDS011;5055;52.054;8.524;2023-04-05T09:37:29;0.20;;;0.20;;
10029;SDS011;5055;52.054;8.524;2023-04-05T09:40:00;0.30;;;0.30;;
10029;SDS011;5055;52.054;8.524;2023-04-05T09:42:33;0.20;;;0.20;;
10029;SDS011;5055;52.054;8.524;2023-04-05T09:45:12;0.30;;;0.30;;
10029;SDS011;5055;52.054;8.524;2023-04-05T09:47:41;0.30;;;0.30;;
10029;SDS011;5055;52.054;8.524;2023-04-05T09:50:20;0.20;;;0.20;;
10029;SDS011;5055;52.054;8.524;2023-04-05T09:52:50;0.30;;;0.30;;
10029;SDS011;5055;52.054;8.524;2023-04-05T09:55:25;0.20;;;0.20;;
10029;SDS011;5055;52.054;8.524;2023-04-05T09:57:55;0.40;;;0.40;;
10029;SDS011;5055;52.054;8.524;2023-04-05T10:00:27;0.30;;;0.30;;
10029;SDS011;5055;52.054;8.524;2023-04-05T10:02:57;0.30;;;0.30;;
10029;SDS011;5055;52.054;8.524;2023-04-05T10:05:26;0.40;;;0.40;;
10029;SDS011;5055;52.054;8.524;2023-04-05T10:07:55;0.30;;;0.30;;
10029;SDS011;5055;52.054;8.524;2023-04-05T10:10:24;0.30;;;0.30;;
10029;SDS011;5055;52.054;8.524;2023-04-05T10:12:53;0.30;;;0.30;;
10029;SDS011;5055;52.054;8.524;2023-04-05T10:15:21;0.30;;;0.30;;
10029;SDS011;5055;52.054;8.524;2023-04-05T10:17:55;0.30;;;0.30;;
10029;SDS011;5055;52.054;8.524;2023-04-05T10:20:30;0.30;;;0.30;;
10029;SDS011;5055;52.054;8.524;2023-04-05T10:23:06;0.30;;;0.30;;
10029;SDS011;5055;52.054;8.524;2023-04-05T10:25:40;0.30;;;0.30;;
10029;SDS011;5055;52.054;8.524;2023-04-05T10:28:21;0.40;;;0.40;;
10029;SDS011;5055;52.054;8.524;2023-04-05T10:30:58;0.20;;;0.20;;
10029;SDS011;5055;52.054;8.524;2023-04-05T10:33:40;0.37;;;0.37;;
10029;SDS011;5055;52.054;8.524;2023-04-05T10:36:17;0.30;;;0.30;;
10029;SDS011;5055;52.054;8.524;2023-04-05T10:38:58;0.20;;;0.20;;
10029;SDS011;5055;52.054;8.524;2023-04-05T10:41:29;0.20;;;0.20;;
10029;SDS011;5055;52.054;8.524;2023-04-05T10:44:02;0.20;;;0.20;;
10029;SDS011;5055;52.054;8.524;2023-04-05T10:46:51;0.20;;;0.20;;
10029;SDS011;5055;52.054;8.524;2023-04-05T10:49:25;0.20;;;0.20;;
10029;SDS011;5055;52.054;8.524;2023-04-05T10:52:01;0.30;;;0.30;;
10029;SDS011;5055;52.054;8.524;2023-04-05T10:54:31;0.30;;;0.30;;
10029;SDS011;5055;52.054;8.524;2023-04-05T10:57:03;0.30;;;0.30;;
10029;SDS011;5055;52.054;8.524;2023-04-05T10:59:39;0.20;;;0.20;;
10029;SDS011;5055;52.054;8.524;2023-04-05T11:02:10;0.20;;;0.20;;
10029;SDS011;5055;52.054;8.524;2023-04-05T11:08:01;0.30;;;0.30;;
10029;SDS011;5055;52.054;8.524;2023-04-05T11:10:31;0.30;;;0.30;;
10029;SDS011;5055;52.054;8.524;2023-04-05T11:13:02;0.27;;;0.27;;
10029;SDS011;5055;52.054;8.524;2023-04-05T11:15:35;0.30;;;0.30;;
10029;SDS011;5055;52.054;8.524;2023-04-05T11:18:04;0.30;;;0.30;;
10029;SDS011;5055;52.054;8.524;2023-04-05T11:20:40;0.30;;;0.30;;
10029;SDS011;5055;52.054;8.524;2023-04-05T11:23:15;0.23;;;0.23;;
10029;SDS011;5055;52.054;8.524;2023-04-05T11:25:45;0.30;;;0.30;;
10029;SDS011;5055;52.054;8.524;2023-04-05T11:28:23;0.30;;;0.30;;
10029;SDS011;5055;52.054;8.524;2023-04-05T11:30:52;0.30;;;0.30;;
10029;SDS011;5055;52.054;8.524;2023-04-05T11:33:37;0.20;;;0.20;;
10029;SDS011;5055;52.054;8.524;2023-04-05T11:36:36;0.30;;;0.30;;
10029;SDS011;5055;52.054;8.524;2023-04-05T11:39:27;0.30;;;0.30;;
10029;SDS011;5055;52.054;8.524;2023-04-05T11:41:58;0.20;;;0.20;;
10029;SDS011;5055;52.054;8.524;2023-04-05T11:44:28;0.20;;;0.20;;
10029;SDS011;5055;52.054;8.524;2023-04-05T11:47:05;0.20;;;0.20;;
10029;SDS011;5055;52.054;8.524;2023-04-05T11:49:34;0.30;;;0.30;;
10029;SDS011;5055;52.054;8.524;2023-04-05T11:52:13;0.20;;;0.20;;
10029;SDS011;5055;52.054;8.524;2023-04-05T11:54:44;0.20;;;0.20;;
10029;SDS011;5055;52.054;8.524;2023-04-05T11:57:18;0.20;;;0.20;;
10029;SDS011;5055;52.054;8.524;2023-04-05T11:59:48;0.20;;;0.20;;
10029;SDS011;5055;52.054;8.524;2023-04-05T12:02:19;0.30;;;0.30;;
10029;SDS011;5055;52.054;8.524;2023-04-05T12:04:52;0.20;;;0.20;;
10029;SDS011;5055;52.054;8.524;2023-04-05T12:07:21;0.20;;;0.20;;
10029;SDS011;5055;52.054;8.524;2023-04-05T12:10:04;0.23;;;0.23;;
10029;SDS011;5055;52.054;8.524;2023-04-05T12:12:35;0.20;;;0.20;;
10029;SDS011;5055;52.054;8.524;2023-04-05T12:15:05;0.30;;;0.30;;
10029;SDS011;5055;52.054;8.524;2023-04-05T12:17:36;0.20;;;0.20;;
10029;SDS011;5055;52.054;8.524;2023-04-05T12:20:06;0.20;;;0.20;;
10029;SDS011;5055;52.054;8.524;2023-04-05T12:22:35;0.30;;;0.30;;
10029;SDS011;5055;52.054;8.524;2023-04-05T12:25:05;0.30;;;0.30;;
10029;SDS011;5055;52.054;8.524;2023-04-05T12:27:35;0.20;;;0.20;;
10029;SDS011;5055;52.054;8.524;2023-04-05T12:30:08;0.20;;;0.20;;
10029;SDS011;5055;52.054;8.524;2023-04-05T12:32:40;0.30;;;0.30;;
10029;SDS011;5055;52.054;8.524;2023-04-05T12:35:11;0.20;;;0.20;;
10029;SDS011;5055;52.054;8.524;2023-04-05T12:37:40;0.20;;;0.20;;
10029;SDS011;5055;52.054;8.524;2023-04-05T12:40:10;0.30;;;0.30;;
10029;SDS011;5055;52.054;8.524;2023-04-05T12:42:39;0.30;;;0.30;;
10029;SDS011;5055;52.054;8.524;2023-04-05T12:45:09;0.20;;;0.20;;
10029;SDS011;5055;52.054;8.524;2023-04-05T12:47:48;0.20;;;0.20;;
10029;SDS011;5055;52.054;8.524;2023-04-05T12:50:18;0.20;;;0.20;;
10029;SDS011;5055;52.054;8.524;2023-04-05T12:52:54;0.30;;;0.30;;
10029;SDS011;5055;52.054;8.524;2023-04-05T12:55:26;0.20;;;0.20;;
10029;SDS011;5055;52.054;8.524;2023-04-05T12:57:55;0.30;;;0.30;;
10029;SDS011;5055;52.054;8.524;2023-04-05T13:00:26;0.30;;;0.30;;
10029;SDS011;5055;52.054;8.524;2023-04-05T13:02:57;0.20;;;0.20;;
10029;SDS011;5055;52.054;8.524;2023-04-05T13:05:26;0.30;;;0.30;;
10029;SDS011;5055;52.054;8.524;2023-04-05T13:07:55;0.23;;;0.23;;
10029;SDS011;5055;52.054;8.524;2023-04-05T13:10:23;0.20;;;0.20;;
10029;SDS011;5055;52.054;8.524;2023-04-05T13:12:53;0.20;;;0.20;;
10029;SDS011;5055;52.054;8.524;2023-04-05T13:15:21;0.20;;;0.20;;
10029;SDS011;5055;52.054;8.524;2023-04-05T13:17:49;0.20;;;0.20;;
10029;SDS011;5055;52.054;8.524;2023-04-05T13:20:18;0.20;;;0.20;;
10029;SDS011;5055;52.054;8.524;2023-04-05T13:22:47;0.30;;;0.30;;
10029;SDS011;5055;52.054;8.524;2023-04-05T13:25:15;0.20;;;0.20;;
10029;SDS011;5055;52.054;8.524;2023-04-05T13:27:45;0.20;;;0.20;;
10029;SDS011;5055;52.054;8.524;2023-04-05T13:30:13;0.20;;;0.20;;
10029;SDS011;5055;52.054;8.524;2023-04-05T13:32:41;0.20;;;0.20;;
10029;SDS011;5055;52.054;8.524;2023-04-05T13:35:09;0.20;;;0.20;;
10029;SDS011;5055;52.054;8.524;2023-04-05T13:37:37;0.20;;;0.20;;
10029;SDS011;5055;52.054;8.524;2023-04-05T13:40:06;0.20;;;0.20;;
10029;SDS011;5055;52.054;8.524;2023-04-05T13:42:35;0.20;;;0.20;;
10029;SDS011;5055;52.054;8.524;2023-04-05T13:45:05;0.20;;;0.20;;
10029;SDS011;5055;52.054;8.524;2023-04-05T13:47:34;0.20;;;0.20;;
10029;SDS011;5055;52.054;8.524;2023-04-05T13:50:02;0.20;;;0.20;;
10029;SDS011;5055;52.054;8.524;2023-04-05T13:52:31;0.20;;;0.20;;
10029;SDS011;5055;52.054;8.524;2023-04-05T13:54:59;0.20;;;0.20;;
10029;SDS011;5055;52.054;8.524;2023-04-05T13:57:29;0.20;;;0.20;;
10029;SDS011;5055;52.054;8.524;2023-04-05T13:59:57;0.20;;;0.20;;
10029;SDS011;5055;52.054;8.524;2023-04-05T14:02:27;0.10;;;0.10;;
10029;SDS011;5055;52.054;8.524;2023-04-05T14:04:55;0.20;;;0.20;;
10029;SDS011;5055;52.054;8.524;2023-04-05T14:07:23;0.20;;;0.20;;
10029;SDS011;5055;52.054;8.524;2023-04-05T14:09:51;0.20;;;0.20;;
10029;SDS011;5055;52.054;8.524;2023-04-05T14:12:19;0.10;;;0.10;;
10029;SDS011;5055;52.054;8.524;2023-04-05T14:14:47;0.10;;;0.10;;
10029;SDS011;5055;52.054;8.524;2023-04-05T14:17:15;0.10;;;0.10;;
10029;SDS011;5055;52.054;8.524;2023-04-05T14:19:45;0.10;;;0.10;;
10029;SDS011;5055;52.054;8.524;2023-04-05T14:22:13;0.10;;;0.10;;
10029;SDS011;5055;52.054;8.524;2023-04-05T14:24:41;0.10;;;0.10;;
10029;SDS011;5055;52.054;8.524;2023-04-05T14:27:09;0.10;;;0.10;;
10029;SDS011;5055;52.054;8.524;2023-04-05T14:29:37;0.10;;;0.10;;
10029;SDS011;5055;52.054;8.524;2023-04-05T14:32:06;0.10;;;0.10;;
10029;SDS011;5055;52.054;8.524;2023-04-05T14:34:35;0.20;;;0.20;;
10029;SDS011;5055;52.054;8.524;2023-04-05T14:37:04;0.20;;;0.20;;
10029;SDS011;5055;52.054;8.524;2023-04-05T14:39:33;0.13;;;0.13;;
10029;SDS011;5055;52.054;8.524;2023-04-05T14:42:01;0.20;;;0.20;;
10029;SDS011;5055;52.054;8.524;2023-04-05T14:44:29;0.20;;;0.20;;
10029;SDS011;5055;52.054;8.524;2023-04-05T14:46:57;0.10;;;0.10;;
10029;SDS011;5055;52.054;8.524;2023-04-05T14:49:26;0.10;;;0.10;;
10029;SDS011;5055;52.054;8.524;2023-04-05T14:51:54;0.10;;;0.10;;
10029;SDS011;5055;52.054;8.524;2023-04-05T14:54:23;0.10;;;0.10;;
10029;SDS011;5055;52.054;8.524;2023-04-05T14:56:51;0.10;;;0.10;;
10029;SDS011;5055;52.054;8.524;2023-04-05T14:59:19;0.10;;;0.10;;
10029;SDS011;5055;52.054;8.524;2023-04-05T15:01:48;0.10;;;0.10;;
10029;SDS011;5055;52.054;8.524;2023-04-05T15:04:16;0.10;;;0.10;;
10029;SDS011;5055;52.054;8.524;2023-04-05T15:06:44;0.10;;;0.10;;
10029;SDS011;5055;52.054;8.524;2023-04-05T15:09:13;0.10;;;0.10;;
10029;SDS011;5055;52.054;8.524;2023-04-05T15:11:42;0.10;;;0.10;;
10029;SDS011;5055;52.054;8.524;2023-04-05T15:14:11;0.10;;;0.10;;
10029;SDS011;5055;52.054;8.524;2023-04-05T15:16:56;0.10;;;0.10;;
10029;SDS011;5055;52.054;8.524;2023-04-05T15:19:24;0.17;;;0.17;;
10029;SDS011;5055;52.054;8.524;2023-04-05T15:21:52;0.10;;;0.10;;
10029;SDS011;5055;52.054;8.524;2023-04-05T15:24:21;0.10;;;0.10;;
10029;SDS011;5055;52.054;8.524;2023-04-05T15:26:50;0.10;;;0.10;;